OOCL Kaohsiung — 9V9830 — position and weather

sailwx.info

Track history (hours):
 
Tides and Currents Weather Stations Pressure Air Temp Water Temp Dewpoint Dewpoint Depression Visibility Wind Speed Wind Dir Waves Ship Positions

OOCL Kaohsiung

Last reported at 2015-Mar-31 09:32 UTC. Time now 2015-Mar-31 09:49 UTC.
Position N 32°07' W 081°08'.

Length 280 m; draft 11.5 m.

Type: Cargo ship. MMSI: 566389000.

Date/timePositionNaut miles runAvg speedWind from/ knotsBaromVisibWave heightAir tempDewpointWater temp
2015-Mar-31 09:32N 32°07' W 081°08'0 0.0
2015-Mar-31 08:31N 32°07' W 081°08'0 0.0
2015-Mar-31 07:32N 32°07' W 081°08'0 0.0
2015-Mar-31 06:31N 32°07' W 081°08'0 0.0
2015-Mar-31 05:32N 32°07' W 081°08'0 0.0
2015-Mar-31 04:32N 32°07' W 081°08'0 0.0
2015-Mar-31 03:32N 32°07' W 081°08'0 0.0
2015-Mar-31 02:31N 32°07' W 081°08'0 0.0
2015-Mar-31 01:32N 32°07' W 081°08'0 0.0
2015-Mar-31 00:32N 32°07' W 081°08'0 0.0
2015-Mar-30 23:31N 32°07' W 081°08'0 0.1
2015-Mar-30 22:33N 32°07' W 081°08'3 3.0
2015-Mar-30 21:33N 32°05' W 081°06'6 6.4
2015-Mar-30 20:33N 32°04' W 080°58'10 9.8
2015-Mar-30 19:33N 32°00' W 080°48'9 9.4
2015-Mar-30 18:33N 31°56' W 080°38'18 4.4
2015-Mar-30 14:32N 31°54' W 080°17'1 0.6
2015-Mar-30 13:13N 31°55' W 080°17'1014.8
2015-Mar-30 12:34N 31°59' W 080°06'54514.4
2015-Mar-28 22:33N 39°32' W 073°52'1919.0
2015-Mar-28 21:33N 39°51' W 073°51'1817.8
2015-Mar-28 20:32N 40°09' W 073°50'10 9.8
2015-Mar-28 19:33N 40°18' W 073°49'9 9.5
2015-Mar-28 18:33N 40°28' W 073°51'1010.1
2015-Mar-28 17:33N 40°34' W 074°02'8 7.5
2015-Mar-28 16:33N 40°39' W 074°09'1 1.4
2015-Mar-28 15:31N 40°40' W 074°08'0 0.0
2015-Mar-28 14:31N 40°40' W 074°08'0 0.0
2015-Mar-28 13:31N 40°40' W 074°08'0 0.0
2015-Mar-28 12:31N 40°40' W 074°09'0 0.0
2015-Mar-28 11:31N 40°40' W 074°09'0 0.0
2015-Mar-28 10:31N 40°40' W 074°08'0 0.0
2015-Mar-28 09:31N 40°40' W 074°08'0 0.0
2015-Mar-28 08:31N 40°40' W 074°08'0 0.0
2015-Mar-28 07:31N 40°40' W 074°08'0 0.0
2015-Mar-28 06:31N 40°40' W 074°08'0 0.0
2015-Mar-28 05:31N 40°40' W 074°08'0 0.0
2015-Mar-28 04:31N 40°40' W 074°08'0 0.0
2015-Mar-28 03:31N 40°40' W 074°08'0 0.0
2015-Mar-28 02:31N 40°40' W 074°08'0 0.0
2015-Mar-28 01:31N 40°40' W 074°08'0 0.0
2015-Mar-28 00:31N 40°40' W 074°08'0 0.0
2015-Mar-27 23:31N 40°40' W 074°08'0 0.0
2015-Mar-27 22:31N 40°40' W 074°08'0 0.0
2015-Mar-27 21:31N 40°40' W 074°08'0 0.0
2015-Mar-27 20:31N 40°40' W 074°09'0 0.0
2015-Mar-27 19:31N 40°40' W 074°08'0 0.0
2015-Mar-27 18:31N 40°40' W 074°08'0 0.0
2015-Mar-27 17:31N 40°40' W 074°09'0 0.0
2015-Mar-27 16:31N 40°40' W 074°08'0 0.0
2015-Mar-27 15:28N 40°40' W 074°08'0 0.0
2015-Mar-27 14:28N 40°40' W 074°08'0 0.0
2015-Mar-27 13:28N 40°40' W 074°08'0 0.0
2015-Mar-27 12:28N 40°40' W 074°08'0 0.0
2015-Mar-27 11:22N 40°40' W 074°08'0 0.0
2015-Mar-27 10:32N 40°40' W 074°08'2 1.7
2015-Mar-27 09:33N 40°39' W 074°08'6 5.9
2015-Mar-27 08:33N 40°35' W 074°02'13 9.8
2015-Mar-27 07:16N 40°27' W 073°49'4 5.5
2015-Mar-27 06:32N 40°27' W 073°43'7 6.6
2015-Mar-27 05:28N 40°28' W 073°34'2010.2
2015-Mar-27 03:30N 40°29' W 073°08'1713.6
2015-Mar-27 02:17N 40°30' W 072°46'1013.4
2015-Mar-27 01:33N 40°30' W 072°33'1313.3
2015-Mar-27 00:33N 40°31' W 072°16'1313.4
2015-Mar-26 23:34N 40°32' W 071°58'1414.2
2015-Mar-26 22:33N 40°32' W 071°39'1515.2
2015-Mar-26 21:34N 40°32' W 071°20'1615.7
2015-Mar-26 20:33N 40°32' W 070°59'1615.5
2015-Mar-26 19:34N 40°33' W 070°38'1615.6
2015-Mar-26 18:33N 40°33' W 070°18'1615.9
2015-Mar-26 17:32N 40°34' W 069°57'36914.2
2015-Mar-25 15:29N 44°30' W 063°30'9 9.6
2015-Mar-25 14:33N 44°38' W 063°33'4 3.7
2015-Mar-25 13:33N 44°40' W 063°38'0 0.0
2015-Mar-25 12:33N 44°40' W 063°38'0 0.0
2015-Mar-25 11:33N 44°40' W 063°38'0 0.0
2015-Mar-25 10:30N 44°40' W 063°38'0 0.0
2015-Mar-25 09:33N 44°40' W 063°38'0 0.0
2015-Mar-25 08:33N 44°40' W 063°38'0 0.0
2015-Mar-25 07:33N 44°40' W 063°38'0 0.0
2015-Mar-25 06:24N 44°40' W 063°38'0 0.0
2015-Mar-25 04:27N 44°40' W 063°38'0 0.0
2015-Mar-25 03:27N 44°40' W 063°38'0 0.0
2015-Mar-25 02:27N 44°40' W 063°38'0 0.0
2015-Mar-25 01:30N 44°40' W 063°38'0 0.0
2015-Mar-25 00:30N 44°40' W 063°38'0 0.0
2015-Mar-24 23:33N 44°40' W 063°38'0 0.0
2015-Mar-24 22:18N 44°40' W 063°38'0 0.0
2015-Mar-24 21:33N 44°40' W 063°38'1 0.8
2015-Mar-24 20:33N 44°41' W 063°38'0 0.5
2015-Mar-24 19:33N 44°41' W 063°37'6 6.1
2015-Mar-24 18:33N 44°36' W 063°32'  
Track history (hours):
 
Tides and Currents Weather Stations Pressure Air Temp Water Temp Dewpoint Dewpoint Depression Visibility Wind Speed Wind Dir Waves Ship Positions

OOCL Kaohsiung

Last reported at 2015-Mar-31 09:32 UTC. Time now 2015-Mar-31 09:49 UTC.
Position N 32°07' W 081°08'.

Length 280 m; draft 11.5 m.

Type: Cargo ship. MMSI: 566389000.

Date/timePositionNaut miles runAvg speedWind from/ knotsBaromVisibWave heightAir tempDewpointWater temp
2015-Mar-31 09:32N 32°07' W 081°08'0 0.0
2015-Mar-31 08:31N 32°07' W 081°08'0 0.0
2015-Mar-31 07:32N 32°07' W 081°08'0 0.0
2015-Mar-31 06:31N 32°07' W 081°08'0 0.0
2015-Mar-31 05:32N 32°07' W 081°08'0 0.0
2015-Mar-31 04:32N 32°07' W 081°08'0 0.0
2015-Mar-31 03:32N 32°07' W 081°08'0 0.0
2015-Mar-31 02:31N 32°07' W 081°08'0 0.0
2015-Mar-31 01:32N 32°07' W 081°08'0 0.0
2015-Mar-31 00:32N 32°07' W 081°08'0 0.0
2015-Mar-30 23:31N 32°07' W 081°08'0 0.1
2015-Mar-30 22:33N 32°07' W 081°08'3 3.0
2015-Mar-30 21:33N 32°05' W 081°06'6 6.4
2015-Mar-30 20:33N 32°04' W 080°58'10 9.8
2015-Mar-30 19:33N 32°00' W 080°48'9 9.4
2015-Mar-30 18:33N 31°56' W 080°38'18 4.4
2015-Mar-30 14:32N 31°54' W 080°17'1 0.6
2015-Mar-30 13:13N 31°55' W 080°17'1014.8
2015-Mar-30 12:34N 31°59' W 080°06'54514.4
2015-Mar-28 22:33N 39°32' W 073°52'1919.0
2015-Mar-28 21:33N 39°51' W 073°51'1817.8
2015-Mar-28 20:32N 40°09' W 073°50'10 9.8
2015-Mar-28 19:33N 40°18' W 073°49'9 9.5
2015-Mar-28 18:33N 40°28' W 073°51'1010.1
2015-Mar-28 17:33N 40°34' W 074°02'8 7.5
2015-Mar-28 16:33N 40°39' W 074°09'1 1.4
2015-Mar-28 15:31N 40°40' W 074°08'0 0.0
2015-Mar-28 14:31N 40°40' W 074°08'0 0.0
2015-Mar-28 13:31N 40°40' W 074°08'0 0.0
2015-Mar-28 12:31N 40°40' W 074°09'0 0.0
2015-Mar-28 11:31N 40°40' W 074°09'0 0.0
2015-Mar-28 10:31N 40°40' W 074°08'0 0.0
2015-Mar-28 09:31N 40°40' W 074°08'0 0.0
2015-Mar-28 08:31N 40°40' W 074°08'0 0.0
2015-Mar-28 07:31N 40°40' W 074°08'0 0.0
2015-Mar-28 06:31N 40°40' W 074°08'0 0.0
2015-Mar-28 05:31N 40°40' W 074°08'0 0.0
2015-Mar-28 04:31N 40°40' W 074°08'0 0.0
2015-Mar-28 03:31N 40°40' W 074°08'0 0.0
2015-Mar-28 02:31N 40°40' W 074°08'0 0.0
2015-Mar-28 01:31N 40°40' W 074°08'0 0.0
2015-Mar-28 00:31N 40°40' W 074°08'0 0.0
2015-Mar-27 23:31N 40°40' W 074°08'0 0.0
2015-Mar-27 22:31N 40°40' W 074°08'0 0.0
2015-Mar-27 21:31N 40°40' W 074°08'0 0.0
2015-Mar-27 20:31N 40°40' W 074°09'0 0.0
2015-Mar-27 19:31N 40°40' W 074°08'0 0.0
2015-Mar-27 18:31N 40°40' W 074°08'0 0.0
2015-Mar-27 17:31N 40°40' W 074°09'0 0.0
2015-Mar-27 16:31N 40°40' W 074°08'0 0.0
2015-Mar-27 15:28N 40°40' W 074°08'0 0.0
2015-Mar-27 14:28N 40°40' W 074°08'0 0.0
2015-Mar-27 13:28N 40°40' W 074°08'0 0.0
2015-Mar-27 12:28N 40°40' W 074°08'0 0.0
2015-Mar-27 11:22N 40°40' W 074°08'0 0.0
2015-Mar-27 10:32N 40°40' W 074°08'2 1.7
2015-Mar-27 09:33N 40°39' W 074°08'6 5.9
2015-Mar-27 08:33N 40°35' W 074°02'13 9.8
2015-Mar-27 07:16N 40°27' W 073°49'4 5.5
2015-Mar-27 06:32N 40°27' W 073°43'7 6.6
2015-Mar-27 05:28N 40°28' W 073°34'2010.2
2015-Mar-27 03:30N 40°29' W 073°08'1713.6
2015-Mar-27 02:17N 40°30' W 072°46'1013.4
2015-Mar-27 01:33N 40°30' W 072°33'1313.3
2015-Mar-27 00:33N 40°31' W 072°16'1313.4
2015-Mar-26 23:34N 40°32' W 071°58'1414.2
2015-Mar-26 22:33N 40°32' W 071°39'1515.2
2015-Mar-26 21:34N 40°32' W 071°20'1615.7
2015-Mar-26 20:33N 40°32' W 070°59'1615.5
2015-Mar-26 19:34N 40°33' W 070°38'1615.6
2015-Mar-26 18:33N 40°33' W 070°18'1615.9
2015-Mar-26 17:32N 40°34' W 069°57'36914.2
2015-Mar-25 15:29N 44°30' W 063°30'9 9.6
2015-Mar-25 14:33N 44°38' W 063°33'4 3.7
2015-Mar-25 13:33N 44°40' W 063°38'0 0.0
2015-Mar-25 12:33N 44°40' W 063°38'0 0.0
2015-Mar-25 11:33N 44°40' W 063°38'0 0.0
2015-Mar-25 10:30N 44°40' W 063°38'0 0.0
2015-Mar-25 09:33N 44°40' W 063°38'0 0.0
2015-Mar-25 08:33N 44°40' W 063°38'0 0.0
2015-Mar-25 07:33N 44°40' W 063°38'0 0.0
2015-Mar-25 06:24N 44°40' W 063°38'0 0.0
2015-Mar-25 04:27N 44°40' W 063°38'0 0.0
2015-Mar-25 03:27N 44°40' W 063°38'0 0.0
2015-Mar-25 02:27N 44°40' W 063°38'0 0.0
2015-Mar-25 01:30N 44°40' W 063°38'0 0.0
2015-Mar-25 00:30N 44°40' W 063°38'0 0.0
2015-Mar-24 23:33N 44°40' W 063°38'0 0.0
2015-Mar-24 22:18N 44°40' W 063°38'0 0.0
2015-Mar-24 21:33N 44°40' W 063°38'1 0.8
2015-Mar-24 20:33N 44°41' W 063°38'0 0.5
2015-Mar-24 19:33N 44°41' W 063°37'6 6.1
2015-Mar-24 18:33N 44°36' W 063°32'  

Dump ship's entire track history